Terminal Aerodrome Forecast
Issued by NWS

Home | Current Version | Previous Version | Graphics & Text | Print | Product List | Glossary On
Versions: 1 2 3 4 5 6 7 8 9 10 11 12 13 14 15 16 17 18 19
000
FTUS41 KCLE 021400 AAA
TAFFDY
TAF AMD
KFDY 021443Z 0215/0312 20008KT P6SM VCSH OVC080
     FM021700 25012KT P6SM BKN250
     FM021900 25008KT P6SM SCT250
     FM030200 25003KT 5SM BR SCT250
      TEMPO 0306/0308 2SM BR BKN012
     FM030800 VRB03KT 1SM BR BKN012=

USA.gov is the U.S. government's official web portal to all federal, state and local government web resources and services.